Time;durP1;ratioP1;P1;durP2;ratioP2;P2;SDS_P1;SDS_P2;PMS_P1;PMS_P2;Temp;Humidity;BMP_temperature;BMP_pressure;BME280_temperature;BME280_humidity;BME280_pressure;Samples;Min_cycle;Max_cycle;Signal;HPM_P1;HPM_P2
2024/01/24 00:04:48;;;;;;;0.50;0.50;;;9.50;99.90;;;;;;10494080;28;20611;-83
2024/01/24 00:09:52;;;;;;;0.50;0.50;;;9.40;99.90;;;;;;10475745;28;20216;-82
2024/01/24 00:14:55;;;;;;;0.60;0.60;;;9.40;99.90;;;;;;10501505;28;20290;-83
2024/01/24 00:19:57;;;;;;;0.53;0.53;;;9.50;99.90;;;;;;10489080;28;20209;-82
2024/01/24 00:25:01;;;;;;;0.60;0.60;;;9.60;99.90;;;;;;10493465;28;20192;-83
2024/01/24 00:30:05;;;;;;;0.50;0.50;;;9.70;99.90;;;;;;10492306;28;20216;-82
2024/01/24 00:35:08;;;;;;;0.50;0.50;;;9.70;99.90;;;;;;10497027;28;20214;-84
2024/01/24 00:40:13;;;;;;;0.50;0.50;;;9.80;99.90;;;;;;10491046;28;20247;-83
2024/01/24 00:45:15;;;;;;;0.50;0.50;;;9.80;99.90;;;;;;10490757;28;20197;-84
2024/01/24 00:50:18;;;;;;;0.50;0.50;;;9.80;99.90;;;;;;10492607;28;20332;-82
2024/01/24 00:55:21;;;;;;;0.40;0.40;;;9.90;99.90;;;;;;10470914;28;20220;-83
2024/01/24 01:00:24;;;;;;;0.50;0.50;;;9.90;99.90;;;;;;10489480;28;20213;-83
2024/01/24 01:05:26;;;;;;;0.50;0.50;;;10.00;99.90;;;;;;10485745;28;20555;-82
2024/01/24 01:10:30;;;;;;;0.40;0.40;;;10.00;99.90;;;;;;10471519;28;20228;-82
2024/01/24 01:15:32;;;;;;;0.40;0.40;;;9.90;99.90;;;;;;10474105;28;20197;-82
2024/01/24 01:20:34;;;;;;;0.40;0.40;;;9.90;99.90;;;;;;10482667;28;20267;-84
2024/01/24 01:25:38;;;;;;;0.50;0.50;;;10.00;99.90;;;;;;10486672;28;20254;-82
2024/01/24 01:30:40;;;;;;;0.40;0.40;;;10.00;99.90;;;;;;10473765;28;20212;-82
2024/01/24 01:35:43;;;;;;;0.40;0.40;;;10.00;99.90;;;;;;10499813;28;20243;-81
2024/01/24 01:40:46;;;;;;;0.40;0.40;;;10.00;99.90;;;;;;10479330;28;20229;-82
2024/01/24 01:45:49;;;;;;;0.40;0.40;;;9.90;99.90;;;;;;10479671;28;20202;-82
2024/01/24 01:50:51;;;;;;;0.50;0.50;;;9.90;99.90;;;;;;10479166;28;20225;-81
2024/01/24 01:55:56;;;;;;;0.40;0.40;;;9.90;99.90;;;;;;10480929;28;20598;-83
2024/01/24 02:00:59;;;;;;;0.40;0.40;;;9.90;99.90;;;;;;10476532;28;20217;-84
2024/01/24 02:06:05;;;;;;;0.40;0.40;;;9.90;99.90;;;;;;10479883;28;20733;-83
2024/01/24 02:11:08;;;;;;;0.40;0.40;;;9.90;99.90;;;;;;10484401;28;20221;-83
2024/01/24 02:16:13;;;;;;;0.50;0.50;;;9.90;99.90;;;;;;10497475;28;20189;-82
2024/01/24 02:21:16;;;;;;;0.40;0.40;;;9.90;99.90;;;;;;10488779;28;20205;-82
2024/01/24 02:26:19;;;;;;;0.50;0.50;;;9.80;99.90;;;;;;10485456;28;20193;-82
2024/01/24 02:31:22;;;;;;;0.50;0.50;;;9.80;99.90;;;;;;10466195;28;20232;-81
2024/01/24 02:36:24;;;;;;;0.40;0.40;;;9.90;99.90;;;;;;10485039;28;20206;-82
2024/01/24 02:41:28;;;;;;;0.50;0.50;;;9.90;99.90;;;;;;10452967;28;20217;-83
2024/01/24 02:46:30;;;;;;;0.40;0.40;;;9.90;99.90;;;;;;10488114;28;20239;-83
2024/01/24 02:51:32;;;;;;;0.50;0.50;;;10.00;99.90;;;;;;10471798;28;20243;-86
2024/01/24 02:56:37;;;;;;;0.40;0.40;;;10.00;99.90;;;;;;10475462;28;20205;-83
2024/01/24 03:01:40;;;;;;;0.50;0.50;;;10.10;99.90;;;;;;10482935;28;20225;-83
2024/01/24 03:06:42;;;;;;;0.50;0.50;;;10.10;99.90;;;;;;10479762;28;20189;-84
2024/01/24 03:11:46;;;;;;;0.40;0.40;;;10.20;99.90;;;;;;10477342;28;20789;-82
2024/01/24 03:16:49;;;;;;;0.50;0.50;;;10.20;99.90;;;;;;10476480;28;20201;-84
2024/01/24 03:21:51;;;;;;;0.40;0.40;;;10.30;99.90;;;;;;10480059;28;20634;-84
2024/01/24 03:26:55;;;;;;;0.50;0.50;;;10.40;99.90;;;;;;10474880;28;20263;-83
2024/01/24 03:31:57;;;;;;;0.50;0.50;;;10.50;99.90;;;;;;10473220;28;20413;-83
2024/01/24 03:36:59;;;;;;;0.67;0.67;;;10.60;99.90;;;;;;10478580;28;20717;-82
2024/01/24 03:42:03;;;;;;;0.50;0.50;;;10.80;99.90;;;;;;10480657;28;20229;-83
2024/01/24 03:47:06;;;;;;;0.50;0.50;;;10.80;99.90;;;;;;10480682;28;20201;-82
2024/01/24 03:52:08;;;;;;;0.57;0.57;;;10.80;99.90;;;;;;10480967;28;20225;-82
2024/01/24 03:57:12;;;;;;;0.50;0.50;;;10.80;99.90;;;;;;10484809;28;20194;-84
2024/01/24 04:02:14;;;;;;;0.50;0.50;;;10.90;99.90;;;;;;10481413;28;20231;-82
2024/01/24 04:07:17;;;;;;;0.80;0.80;;;11.10;99.90;;;;;;10478718;28;20197;-83
2024/01/24 04:12:20;;;;;;;0.80;0.80;;;11.20;99.90;;;;;;10478862;28;20312;-84
2024/01/24 04:17:23;;;;;;;0.87;0.87;;;11.30;99.90;;;;;;10499756;28;21002;-82
2024/01/24 04:22:25;;;;;;;0.70;0.70;;;11.20;99.90;;;;;;10516978;28;20189;-80
2024/01/24 04:27:29;;;;;;;0.80;0.80;;;11.30;99.90;;;;;;10514510;28;20196;-83
2024/01/24 04:32:31;;;;;;;0.80;0.80;;;11.30;99.90;;;;;;10516770;28;20231;-82
2024/01/24 04:37:34;;;;;;;0.53;0.53;;;11.30;99.90;;;;;;10505129;28;20203;-82
2024/01/24 04:42:38;;;;;;;0.80;0.80;;;11.40;99.90;;;;;;10503520;28;20193;-83
2024/01/24 04:47:42;;;;;;;0.80;0.80;;;11.40;99.90;;;;;;10509265;28;20681;-82
2024/01/24 04:52:45;;;;;;;0.80;0.80;;;11.30;99.90;;;;;;10501979;28;20240;-83
2024/01/24 04:57:48;;;;;;;0.70;0.70;;;11.30;99.90;;;;;;10512780;28;20299;-82
2024/01/24 05:02:51;;;;;;;0.60;0.60;;;11.30;99.90;;;;;;10506932;28;20214;-82
2024/01/24 05:07:53;;;;;;;0.90;0.90;;;11.20;99.90;;;;;;10497518;28;20217;-83
2024/01/24 05:12:57;;;;;;;0.80;0.80;;;11.20;99.90;;;;;;10486544;28;20212;-82
2024/01/24 05:17:59;;;;;;;1.00;1.00;;;11.20;99.90;;;;;;10510349;28;20748;-82
2024/01/24 05:23:03;;;;;;;0.90;0.90;;;11.20;99.90;;;;;;10493572;28;20681;-82
2024/01/24 05:28:08;;;;;;;0.80;0.80;;;11.30;99.90;;;;;;10509617;28;20266;-84
2024/01/24 05:33:10;;;;;;;0.90;0.90;;;11.30;99.90;;;;;;10511089;28;20273;-85
2024/01/24 05:38:13;;;;;;;0.70;0.70;;;11.40;99.90;;;;;;10512331;28;20701;-84
2024/01/24 05:43:17;;;;;;;0.90;0.90;;;11.40;99.90;;;;;;10515776;28;20193;-84
2024/01/24 05:48:19;;;;;;;0.67;0.67;;;11.40;99.90;;;;;;10511192;28;20242;-83
2024/01/24 05:53:22;;;;;;;0.60;0.60;;;11.40;99.90;;;;;;10514637;28;20216;-83
2024/01/24 05:58:25;;;;;;;0.60;0.60;;;11.50;99.90;;;;;;10494404;28;20244;-83
2024/01/24 06:03:28;;;;;;;0.50;0.50;;;11.60;99.90;;;;;;10512270;28;20218;-83
2024/01/24 06:08:31;;;;;;;0.37;0.37;;;11.70;99.90;;;;;;10529603;28;20228;-81
2024/01/24 06:13:34;;;;;;;0.60;0.60;;;11.90;99.90;;;;;;10470119;28;20229;-84
2024/01/24 06:18:37;;;;;;;0.40;0.40;;;11.90;99.90;;;;;;10471532;28;20239;-85
2024/01/24 06:23:39;;;;;;;0.53;0.53;;;12.00;99.90;;;;;;10492862;28;20193;-85
2024/01/24 06:28:43;;;;;;;0.60;0.60;;;12.00;99.90;;;;;;10503983;28;20220;-82
2024/01/24 06:33:46;;;;;;;0.70;0.70;;;12.10;99.90;;;;;;10484257;28;20224;-83
2024/01/24 06:38:49;;;;;;;0.60;0.60;;;12.10;99.90;;;;;;10468273;28;20228;-84
2024/01/24 06:43:52;;;;;;;0.60;0.60;;;12.10;99.90;;;;;;10489529;28;20219;-83
2024/01/24 06:48:55;;;;;;;0.70;0.70;;;12.20;99.90;;;;;;10503780;28;20274;-82
2024/01/24 06:53:57;;;;;;;0.60;0.60;;;12.20;99.90;;;;;;10501278;28;20220;-82
2024/01/24 06:59:02;;;;;;;0.40;0.40;;;12.20;99.90;;;;;;10469411;28;20274;-82
2024/01/24 07:04:05;;;;;;;0.60;0.60;;;12.20;99.90;;;;;;10489022;28;20196;-84
2024/01/24 07:09:07;;;;;;;0.50;0.50;;;12.10;99.90;;;;;;10486751;28;20647;-80
2024/01/24 07:14:12;;;;;;;0.70;0.70;;;12.10;99.90;;;;;;10494222;28;20220;-83
2024/01/24 07:19:15;;;;;;;0.23;0.23;;;12.10;99.90;;;;;;10475467;28;20225;-82
2024/01/24 07:24:17;;;;;;;0.70;0.70;;;12.00;99.90;;;;;;10497295;28;20185;-82
2024/01/24 07:29:21;;;;;;;0.60;0.60;;;12.10;99.90;;;;;;10495694;28;20231;-84
2024/01/24 07:34:24;;;;;;;0.43;0.43;;;12.20;99.90;;;;;;10477200;28;20225;-84
2024/01/24 07:39:28;;;;;;;0.60;0.60;;;12.20;99.90;;;;;;10490205;28;20270;-82
2024/01/24 07:44:31;;;;;;;0.60;0.60;;;12.30;99.90;;;;;;10476445;28;20184;-82
2024/01/24 07:49:34;;;;;;;0.50;0.50;;;12.30;99.90;;;;;;10492743;28;20212;-84
2024/01/24 07:54:36;;;;;;;0.50;0.50;;;12.50;99.90;;;;;;10475637;28;20220;-85
2024/01/24 07:59:40;;;;;;;0.60;0.60;;;12.60;99.90;;;;;;10492395;28;20310;-84
2024/01/24 08:04:42;;;;;;;0.40;0.40;;;12.50;99.90;;;;;;10494177;28;20262;-84
2024/01/24 08:09:45;;;;;;;0.40;0.40;;;12.60;99.90;;;;;;10478548;28;20220;-83
2024/01/24 08:14:49;;;;;;;0.50;0.50;;;12.60;99.90;;;;;;10479475;28;20208;-83
2024/01/24 08:19:51;;;;;;;0.60;0.60;;;12.70;99.90;;;;;;10487548;28;20217;-80
2024/01/24 08:24:54;;;;;;;0.50;0.50;;;12.80;99.90;;;;;;10477752;28;20699;-83
2024/01/24 08:29:59;;;;;;;0.60;0.60;;;12.80;99.90;;;;;;10477600;28;20220;-84
2024/01/24 08:35:01;;;;;;;0.30;0.30;;;12.90;99.90;;;;;;10477783;28;20213;-83
2024/01/24 08:40:05;;;;;;;0.50;0.50;;;12.90;99.90;;;;;;10479022;28;20685;-83
2024/01/24 08:45:10;;;;;;;0.30;0.30;;;13.00;99.90;;;;;;10455206;28;20639;-83
2024/01/24 08:50:12;;;;;;;0.30;0.30;;;13.00;99.90;;;;;;10479858;28;20303;-83
2024/01/24 08:55:16;;;;;;;0.50;0.50;;;13.10;99.90;;;;;;10483882;28;20623;-85
2024/01/24 09:00:20;;;;;;;0.40;0.40;;;13.10;99.90;;;;;;10485379;28;20225;-84
2024/01/24 09:05:22;;;;;;;0.40;0.40;;;13.10;99.90;;;;;;10488736;28;20208;-83
2024/01/24 09:10:25;;;;;;;0.40;0.40;;;13.10;99.90;;;;;;10480673;28;20664;-85
2024/01/24 09:15:28;;;;;;;0.60;0.60;;;13.20;99.90;;;;;;10483004;28;20860;-83
2024/01/24 09:20:31;;;;;;;0.30;0.30;;;13.20;99.90;;;;;;10479727;28;20220;-84
2024/01/24 09:25:33;;;;;;;0.40;0.40;;;13.20;99.90;;;;;;10484542;28;20193;-84
2024/01/24 09:30:39;;;;;;;0.40;0.40;;;13.30;99.90;;;;;;10450934;28;20213;-84
2024/01/24 09:35:41;;;;;;;0.30;0.30;;;13.40;99.90;;;;;;10473919;28;20216;-84
2024/01/24 09:40:44;;;;;;;0.40;0.40;;;13.40;99.90;;;;;;10468651;28;20259;-83
2024/01/24 09:45:50;;;;;;;0.40;0.40;;;13.40;99.90;;;;;;10464805;28;20741;-82
2024/01/24 09:50:53;;;;;;;0.50;0.50;;;13.30;99.90;;;;;;10457986;28;20217;-83
2024/01/24 09:55:56;;;;;;;0.30;0.30;;;13.30;99.90;;;;;;10465395;28;20220;-83
2024/01/24 10:01:03;;;;;;;0.40;0.40;;;13.30;99.90;;;;;;10460583;28;20221;-83
2024/01/24 10:06:07;;;;;;;0.40;0.40;;;13.30;99.90;;;;;;10464216;28;20201;-84
2024/01/24 10:11:11;;;;;;;0.50;0.50;;;13.30;99.90;;;;;;10458087;28;20280;-83
2024/01/24 10:16:14;;;;;;;0.37;0.37;;;13.30;99.90;;;;;;10467136;28;20458;-83
2024/01/24 10:21:17;;;;;;;0.40;0.40;;;13.30;99.90;;;;;;10470229;28;20229;-82
2024/01/24 10:26:20;;;;;;;0.30;0.30;;;13.40;99.90;;;;;;10460023;28;20205;-82
2024/01/24 10:31:24;;;;;;;0.30;0.30;;;13.40;99.90;;;;;;10454018;28;20225;-80
2024/01/24 10:36:28;;;;;;;0.30;0.30;;;13.40;99.90;;;;;;10466264;28;20240;-82
2024/01/24 10:41:32;;;;;;;0.50;0.50;;;13.40;99.90;;;;;;10465847;28;20271;-81
2024/01/24 10:46:38;;;;;;;0.40;0.40;;;13.40;99.90;;;;;;10466470;28;20223;-82
2024/01/24 10:51:42;;;;;;;0.30;0.30;;;13.50;99.90;;;;;;10461091;28;20221;-83
2024/01/24 10:56:47;;;;;;;0.40;0.40;;;13.60;99.90;;;;;;10466158;28;20213;-83
2024/01/24 11:01:50;;;;;;;0.50;0.50;;;13.80;99.90;;;;;;10467912;28;20213;-82
2024/01/24 11:06:58;;;;;;;0.30;0.30;;;13.80;99.90;;;;;;10474870;28;20558;-81
2024/01/24 11:12:01;;;;;;;0.30;0.30;;;13.80;99.90;;;;;;10475779;28;20221;-81
2024/01/24 11:17:05;;;;;;;0.50;0.50;;;13.70;99.90;;;;;;10463616;28;20251;-81
2024/01/24 11:22:11;;;;;;;0.50;0.50;;;13.40;99.90;;;;;;10473227;28;20306;-82
2024/01/24 11:27:26;;;;;;;0.73;0.73;;;13.20;99.90;;;;;;10473977;28;20198;-81
2024/01/24 11:33:04;;;;;;;0.80;0.80;;;13.00;99.90;;;;;;10472621;28;20201;-82
2024/01/24 11:38:08;;;;;;;1.00;1.00;;;12.90;99.90;;;;;;10488410;22;20217;-79
2024/01/24 11:43:23;;;;;;;0.80;0.80;;;12.80;99.90;;;;;;10491987;28;20196;-77
2024/01/24 11:48:27;;;;;;;1.30;1.30;;;12.70;99.90;;;;;;10478827;28;20217;-77
2024/01/24 11:53:30;;;;;;;0.90;0.90;;;12.70;99.90;;;;;;10474009;28;20232;-77
2024/01/24 11:58:33;;;;;;;1.33;1.33;;;12.70;99.90;;;;;;10488362;28;20635;-77
2024/01/24 12:03:37;;;;;;;1.50;1.50;;;12.60;99.90;;;;;;10475792;28;20192;-77
2024/01/24 12:08:39;;;;;;;1.57;1.57;;;12.60;99.90;;;;;;10462327;28;20209;-77
2024/01/24 12:13:42;;;;;;;1.00;1.00;;;12.60;99.90;;;;;;10475804;28;20227;-77
2024/01/24 12:18:46;;;;;;;1.20;1.20;;;12.60;99.90;;;;;;10488877;28;20221;-77
2024/01/24 12:23:48;;;;;;;0.70;0.70;;;12.50;99.90;;;;;;10475689;28;20189;-77
2024/01/24 12:28:51;;;;;;;0.97;0.97;;;12.50;99.90;;;;;;10487854;28;20278;-78
2024/01/24 12:33:56;;;;;;;0.70;0.70;;;12.40;99.90;;;;;;10482098;28;20277;-77
2024/01/24 12:38:58;;;;;;;0.63;0.63;;;12.50;99.90;;;;;;10490954;28;20224;-78
2024/01/24 12:44:01;;;;;;;0.50;0.50;;;12.50;99.90;;;;;;10477297;28;20201;-77
2024/01/24 12:49:04;;;;;;;0.50;0.50;;;12.70;99.90;;;;;;10492505;28;20293;-77
2024/01/24 12:54:07;;;;;;;0.53;0.53;;;12.80;99.90;;;;;;10466938;28;20289;-78
2024/01/24 12:59:09;;;;;;;0.50;0.50;;;12.90;99.90;;;;;;10491109;28;20652;-76
2024/01/24 13:04:13;;;;;;;0.40;0.40;;;13.10;99.90;;;;;;10483718;28;20188;-76
2024/01/24 13:09:15;;;;;;;0.43;0.43;;;13.30;99.90;;;;;;10495456;28;20229;-78
2024/01/24 13:14:18;;;;;;;0.50;0.50;;;13.40;99.90;;;;;;10488101;28;20725;-78
2024/01/24 13:19:22;;;;;;;0.40;0.40;;;13.50;99.90;;;;;;10497039;28;20278;-78
2024/01/24 13:24:24;;;;;;;0.50;0.50;;;13.40;99.90;;;;;;10492114;28;20193;-77
2024/01/24 13:29:26;;;;;;;0.30;0.30;;;13.40;99.90;;;;;;10488931;28;20225;-78
2024/01/24 13:34:30;;;;;;;0.50;0.50;;;13.50;99.90;;;;;;10487640;28;20685;-78
2024/01/24 13:39:33;;;;;;;0.40;0.40;;;13.50;99.90;;;;;;10493082;28;20729;-78
2024/01/24 13:44:35;;;;;;;0.50;0.50;;;13.30;99.90;;;;;;10474319;28;20624;-78
2024/01/24 13:49:41;;;;;;;0.47;0.47;;;13.20;99.90;;;;;;10490960;28;20221;-78
2024/01/24 13:54:43;;;;;;;0.50;0.50;;;13.20;99.90;;;;;;10490239;28;20227;-78
2024/01/24 13:59:46;;;;;;;0.50;0.50;;;13.20;99.90;;;;;;10482805;28;20247;-78
2024/01/24 14:04:49;;;;;;;0.30;0.30;;;13.10;99.90;;;;;;10492566;28;20269;-77
2024/01/24 14:09:52;;;;;;;0.40;0.40;;;13.10;99.90;;;;;;10476655;28;20636;-78
2024/01/24 14:14:54;;;;;;;0.30;0.30;;;13.10;99.90;;;;;;10495785;28;20274;-77
2024/01/24 14:19:58;;;;;;;0.10;0.10;;;13.10;99.90;;;;;;10493375;28;20573;-78
2024/01/24 14:25:00;;;;;;;0.37;0.37;;;13.00;99.90;;;;;;10483941;28;20193;-78
2024/01/24 14:30:04;;;;;;;0.30;0.30;;;12.90;99.90;;;;;;10496537;28;20216;-77
2024/01/24 14:35:08;;;;;;;0.50;0.50;;;12.90;99.90;;;;;;10492263;28;20663;-78
2024/01/24 14:40:12;;;;;;;0.50;0.50;;;12.90;99.90;;;;;;10476524;28;20235;-78
2024/01/24 14:45:16;;;;;;;0.50;0.50;;;12.90;99.90;;;;;;10476476;28;20205;-78
2024/01/24 14:50:20;;;;;;;0.50;0.50;;;12.80;99.90;;;;;;10498551;28;20221;-79
2024/01/24 14:55:22;;;;;;;0.60;0.60;;;12.80;99.90;;;;;;10493163;28;20281;-78
2024/01/24 15:00:25;;;;;;;0.60;0.60;;;12.80;99.90;;;;;;10495574;28;20220;-77
2024/01/24 15:05:29;;;;;;;0.50;0.50;;;12.70;99.90;;;;;;10497490;28;20207;-79
2024/01/24 15:10:32;;;;;;;0.40;0.40;;;12.60;99.90;;;;;;10489158;28;20228;-78
2024/01/24 15:15:34;;;;;;;0.50;0.50;;;12.60;99.90;;;;;;10490934;28;20216;-79
2024/01/24 15:20:38;;;;;;;0.50;0.50;;;12.50;99.90;;;;;;10492083;28;20221;-78
2024/01/24 15:25:41;;;;;;;0.40;0.40;;;12.50;99.90;;;;;;10471771;28;20208;-77
2024/01/24 15:30:43;;;;;;;0.60;0.60;;;12.50;99.90;;;;;;10467312;28;20227;-77
2024/01/24 15:35:49;;;;;;;0.40;0.40;;;12.50;99.90;;;;;;10484360;28;20237;-77
2024/01/24 15:40:52;;;;;;;0.40;0.40;;;12.50;99.90;;;;;;10484527;28;20839;-77
2024/01/24 15:45:54;;;;;;;0.40;0.40;;;12.40;99.90;;;;;;10460018;28;20604;-77
2024/01/24 15:50:58;;;;;;;0.40;0.40;;;12.40;99.90;;;;;;10480372;28;20270;-77
2024/01/24 15:56:01;;;;;;;0.30;0.30;;;12.40;99.90;;;;;;10491587;28;20364;-78
2024/01/24 16:01:05;;;;;;;0.50;0.50;;;12.30;99.90;;;;;;10495941;28;20208;-77
2024/01/24 16:06:08;;;;;;;0.50;0.50;;;12.30;99.90;;;;;;10494176;28;20254;-78
2024/01/24 16:11:11;;;;;;;0.50;0.50;;;12.30;99.90;;;;;;10479714;28;20227;-78
2024/01/24 16:16:16;;;;;;;0.50;0.50;;;12.20;99.90;;;;;;10494514;28;20266;-78
2024/01/24 16:21:20;;;;;;;0.50;0.50;;;12.10;99.90;;;;;;10487554;28;20246;-79
2024/01/24 16:26:22;;;;;;;0.50;0.50;;;12.00;99.90;;;;;;10487678;28;20200;-78
2024/01/24 16:31:25;;;;;;;0.50;0.50;;;12.00;99.90;;;;;;10490896;28;20220;-79
2024/01/24 16:36:29;;;;;;;0.40;0.40;;;11.90;99.90;;;;;;10464336;28;20228;-79
2024/01/24 16:41:31;;;;;;;0.10;0.10;;;11.90;99.90;;;;;;10494774;28;20289;-78
2024/01/24 16:46:34;;;;;;;0.30;0.30;;;11.90;99.90;;;;;;10490365;28;20189;-78
2024/01/24 16:51:38;;;;;;;0.40;0.40;;;11.80;99.90;;;;;;10492557;28;20270;-79
2024/01/24 16:56:40;;;;;;;0.40;0.40;;;11.90;99.90;;;;;;10492334;28;20216;-78
2024/01/24 17:01:42;;;;;;;0.30;0.30;;;11.80;99.90;;;;;;10493333;28;20228;-78
2024/01/24 17:06:46;;;;;;;0.37;0.37;;;11.70;99.90;;;;;;10494621;28;20189;-79
2024/01/24 17:11:49;;;;;;;0.40;0.40;;;11.70;99.90;;;;;;10470676;28;20712;-79
2024/01/24 17:16:51;;;;;;;0.40;0.40;;;11.70;99.90;;;;;;10484394;28;20216;-79
2024/01/24 17:21:56;;;;;;;0.20;0.20;;;11.60;99.90;;;;;;10488928;28;20548;-79
2024/01/24 17:26:58;;;;;;;0.40;0.40;;;11.50;99.90;;;;;;10487716;28;20386;-78
2024/01/24 17:32:01;;;;;;;0.30;0.30;;;11.50;99.90;;;;;;10471323;28;20697;-78
2024/01/24 17:37:05;;;;;;;0.20;0.20;;;11.40;99.90;;;;;;10463097;28;20221;-77
2024/01/24 17:42:10;;;;;;;0.40;0.40;;;11.50;99.70;;;;;;10465976;28;20232;-77
2024/01/24 17:47:13;;;;;;;0.17;0.17;;;11.50;99.90;;;;;;10480961;22;20605;-81
2024/01/24 17:52:17;;;;;;;0.50;0.50;;;11.50;99.20;;;;;;10452099;28;20209;-80
2024/01/24 17:57:19;;;;;;;0.40;0.40;;;11.50;99.00;;;;;;10460712;28;20229;-80
2024/01/24 18:02:21;;;;;;;0.40;0.40;;;11.50;99.40;;;;;;10440192;28;20202;-82
2024/01/24 18:07:25;;;;;;;0.30;0.30;;;11.40;99.90;;;;;;10463070;28;20229;-81
2024/01/24 18:12:28;;;;;;;0.50;0.50;;;11.30;99.90;;;;;;10454839;28;20201;-84
2024/01/24 18:17:30;;;;;;;0.13;0.13;;;11.20;99.80;;;;;;10469762;28;20768;-83
2024/01/24 18:22:34;;;;;;;0.50;0.50;;;11.20;99.30;;;;;;10475053;28;20208;-78
2024/01/24 18:27:36;;;;;;;0.50;0.50;;;11.20;99.30;;;;;;10451780;28;20270;-80
2024/01/24 18:32:38;;;;;;;0.40;0.40;;;11.20;99.10;;;;;;10452275;28;20576;-80
2024/01/24 18:37:43;;;;;;;0.40;0.40;;;11.20;99.60;;;;;;10450217;28;20230;-80
2024/01/24 18:42:46;;;;;;;0.47;0.47;;;11.20;98.80;;;;;;10447929;28;20205;-78
2024/01/24 18:47:49;;;;;;;0.50;0.50;;;11.10;99.10;;;;;;10454909;28;20213;-81
2024/01/24 18:52:53;;;;;;;0.40;0.40;;;11.10;99.40;;;;;;10437241;28;20213;-78
2024/01/24 18:57:55;;;;;;;0.50;0.50;;;11.00;99.60;;;;;;10442760;28;20647;-80
2024/01/24 19:02:57;;;;;;;0.40;0.40;;;11.00;99.90;;;;;;10456860;28;20201;-82
2024/01/24 19:08:02;;;;;;;0.50;0.50;;;10.90;99.90;;;;;;10443834;28;20220;-78
2024/01/24 19:13:05;;;;;;;0.50;0.50;;;10.90;99.90;;;;;;10449041;28;20308;-78
2024/01/24 19:18:07;;;;;;;0.20;0.20;;;10.90;99.90;;;;;;10443416;28;20222;-78
2024/01/24 19:23:11;;;;;;;0.50;0.50;;;10.80;99.90;;;;;;10444632;28;20201;-80
2024/01/24 19:28:13;;;;;;;0.23;0.23;;;10.90;99.90;;;;;;10449488;28;20293;-80
2024/01/24 19:33:16;;;;;;;0.40;0.40;;;10.90;99.90;;;;;;10442552;28;20209;-78
2024/01/24 19:38:20;;;;;;;0.50;0.50;;;10.90;99.90;;;;;;10440392;28;20284;-80
2024/01/24 19:43:22;;;;;;;0.40;0.40;;;10.90;99.90;;;;;;10446280;28;20193;-79
2024/01/24 19:48:25;;;;;;;0.40;0.40;;;10.80;99.90;;;;;;10432641;28;20262;-78
2024/01/24 19:53:28;;;;;;;0.60;0.60;;;10.80;99.90;;;;;;10444188;28;20718;-78
2024/01/24 19:58:31;;;;;;;0.40;0.40;;;10.80;99.90;;;;;;10440681;28;20229;-79
2024/01/24 20:03:34;;;;;;;0.57;0.57;;;10.70;99.90;;;;;;10452599;28;20205;-79
2024/01/24 20:08:38;;;;;;;0.50;0.50;;;10.70;99.90;;;;;;10438644;28;20217;-78
2024/01/24 20:13:41;;;;;;;0.50;0.50;;;10.70;99.90;;;;;;10459676;28;20233;-81
2024/01/24 20:18:43;;;;;;;0.50;0.50;;;10.90;99.60;;;;;;10450289;28;20617;-80
2024/01/24 20:23:47;;;;;;;0.40;0.40;;;10.80;99.90;;;;;;10462327;28;20225;-79
2024/01/24 20:28:49;;;;;;;0.50;0.50;;;10.80;99.90;;;;;;10454745;28;20619;-79
2024/01/24 20:33:51;;;;;;;0.40;0.40;;;10.80;99.90;;;;;;10448563;28;20694;-83
2024/01/24 20:38:55;;;;;;;0.57;0.57;;;10.90;99.70;;;;;;10431383;28;20217;-82
2024/01/24 20:43:58;;;;;;;0.40;0.40;;;10.80;99.90;;;;;;10454397;28;20281;-81
2024/01/24 20:49:00;;;;;;;0.50;0.50;;;10.80;99.90;;;;;;10438365;28;20208;-81
2024/01/24 20:54:04;;;;;;;0.40;0.40;;;10.70;99.90;;;;;;10447407;28;20710;-81
2024/01/24 20:59:07;;;;;;;0.40;0.40;;;10.70;99.90;;;;;;10440611;28;20270;-80
2024/01/24 21:04:09;;;;;;;0.40;0.40;;;10.70;99.90;;;;;;10442895;28;20217;-81
2024/01/24 21:09:13;;;;;;;0.60;0.60;;;10.70;99.90;;;;;;10452797;28;21065;-81
2024/01/24 21:14:16;;;;;;;0.50;0.50;;;10.70;99.90;;;;;;10435867;28;20220;-82
2024/01/24 21:19:23;;;;;;;0.47;0.47;;;10.70;99.90;;;;;;10433050;28;20217;-83
2024/01/24 21:24:27;;;;;;;0.50;0.50;;;10.70;99.90;;;;;;10427452;28;20256;-80
2024/01/24 21:29:29;;;;;;;0.50;0.50;;;10.70;99.90;;;;;;10433832;28;20231;-82
2024/01/24 21:34:31;;;;;;;0.30;0.30;;;10.70;99.90;;;;;;10422512;28;20593;-84
2024/01/24 21:39:35;;;;;;;0.40;0.40;;;10.70;99.90;;;;;;10445220;28;20221;-81
2024/01/24 21:44:40;;;;;;;0.30;0.30;;;10.70;99.90;;;;;;10452809;28;20224;-80
2024/01/24 21:49:43;;;;;;;0.40;0.40;;;10.80;99.90;;;;;;10441608;28;20696;-80
2024/01/24 21:54:51;;;;;;;0.30;0.30;;;10.80;99.90;;;;;;10477456;28;20228;-80
2024/01/24 21:59:53;;;;;;;0.30;0.30;;;10.80;99.90;;;;;;10443978;28;20236;-80
2024/01/24 22:04:55;;;;;;;0.30;0.30;;;10.80;99.90;;;;;;10460701;28;20217;-81
2024/01/24 22:09:59;;;;;;;0.50;0.50;;;10.80;99.90;;;;;;10440069;28;20205;-83
2024/01/24 22:15:02;;;;;;;0.40;0.40;;;10.80;99.90;;;;;;10459276;28;20214;-81
2024/01/24 22:20:05;;;;;;;0.40;0.40;;;10.80;99.90;;;;;;10458091;28;20240;-79
2024/01/24 22:25:09;;;;;;;0.50;0.50;;;10.90;99.90;;;;;;10457900;28;20217;-80
2024/01/24 22:30:13;;;;;;;0.40;0.40;;;10.90;99.90;;;;;;10456168;28;20212;-79
2024/01/24 22:35:16;;;;;;;0.50;0.50;;;10.90;99.90;;;;;;10458899;28;20225;-82
2024/01/24 22:40:20;;;;;;;0.50;0.50;;;11.00;99.90;;;;;;10470823;28;20220;-85
2024/01/24 22:45:22;;;;;;;0.50;0.50;;;10.90;99.90;;;;;;10459636;28;20233;-82
2024/01/24 22:50:25;;;;;;;0.40;0.40;;;11.00;99.90;;;;;;10454514;28;20247;-82
2024/01/24 22:55:28;;;;;;;0.50;0.50;;;11.00;99.90;;;;;;10457963;28;20217;-80
2024/01/24 23:00:31;;;;;;;0.50;0.50;;;11.00;99.90;;;;;;10470493;28;20623;-81
2024/01/24 23:05:33;;;;;;;0.50;0.50;;;11.00;99.90;;;;;;10448426;28;20242;-79
2024/01/24 23:10:37;;;;;;;0.40;0.40;;;10.90;99.90;;;;;;10444841;28;20194;-80
2024/01/24 23:15:39;;;;;;;0.50;0.50;;;11.00;99.90;;;;;;10452574;28;20274;-78
2024/01/24 23:20:42;;;;;;;0.40;0.40;;;11.00;99.90;;;;;;10456956;28;20225;-79
2024/01/24 23:25:48;;;;;;;0.40;0.40;;;11.00;99.90;;;;;;10448491;28;20229;-80
2024/01/24 23:30:51;;;;;;;0.40;0.40;;;10.90;99.90;;;;;;10454280;28;20201;-84
2024/01/24 23:35:54;;;;;;;0.40;0.40;;;10.90;99.90;;;;;;10456353;28;20217;-81
2024/01/24 23:40:57;;;;;;;0.50;0.50;;;10.90;99.90;;;;;;10459391;28;20600;-82
2024/01/24 23:46:00;;;;;;;0.50;0.50;;;10.90;99.90;;;;;;10448848;28;20879;-82
2024/01/24 23:51:02;;;;;;;0.53;0.53;;;10.90;99.90;;;;;;10451722;28;20471;-80
2024/01/24 23:56:07;;;;;;;0.40;0.40;;;10.90;99.90;;;;;;10451717;28;20220;-80
